createdAt,value
2022-10-23T00:02:34.281Z,38.30
2022-10-23T00:07:36.714Z,37.70
2022-10-23T00:12:39.677Z,41.27
2022-10-23T00:17:42.628Z,43.73
2022-10-23T00:22:45.181Z,40.53
2022-10-23T00:27:47.529Z,42.07
2022-10-23T00:32:49.896Z,42.53
2022-10-23T00:37:52.304Z,40.23
2022-10-23T00:42:54.677Z,41.00
2022-10-23T00:47:57.594Z,40.13
2022-10-23T00:53:03.375Z,39.23
2022-10-23T00:58:05.784Z,39.27
2022-10-23T01:03:08.294Z,38.37
2022-10-23T01:08:28.743Z,39.03
2022-10-23T01:19:19.999Z,37.67
2022-10-23T01:24:37.628Z,37.37
2022-10-23T01:29:46.862Z,36.20
2022-10-23T01:34:55.641Z,38.13
2022-10-23T01:40:03.056Z,37.47
2022-10-23T01:45:19.257Z,34.90
2022-10-23T01:50:23.382Z,36.60
2022-10-23T01:55:32.930Z,35.20
2022-10-23T02:00:41.452Z,34.37
2022-10-23T02:05:45.246Z,33.23
2022-10-23T02:11:07.479Z,29.40
2022-10-23T02:16:30.487Z,28.93
2022-10-23T02:21:58.536Z,30.33
2022-10-23T02:27:04.666Z,29.30
2022-10-23T02:32:09.750Z,32.23
2022-10-23T02:37:12.228Z,30.37
2022-10-23T02:42:30.456Z,28.63
2022-10-23T02:48:06.799Z,29.13
2022-10-23T02:53:29.483Z,28.60
2022-10-23T02:58:44.703Z,28.47
2022-10-23T03:04:00.025Z,29.83
2022-10-23T03:09:08.286Z,27.80
2022-10-23T03:14:13.494Z,28.53
2022-10-23T03:19:15.917Z,28.93
2022-10-23T03:24:18.329Z,28.47
2022-10-23T03:29:20.933Z,28.83
2022-10-23T03:34:23.717Z,29.73
2022-10-23T03:39:28.723Z,30.37
2022-10-23T03:44:34.134Z,30.23
2022-10-23T03:49:36.828Z,28.43
2022-10-23T03:54:41.845Z,28.10
2022-10-23T03:59:46.171Z,28.67
2022-10-23T04:04:48.672Z,29.00
2022-10-23T04:09:51.240Z,30.67
2022-10-23T04:14:53.739Z,31.17
2022-10-23T04:19:57.419Z,30.73
2022-10-23T04:24:59.813Z,29.97
2022-10-23T04:30:03.771Z,29.17
2022-10-23T04:35:07.094Z,28.63
2022-10-23T04:40:10.063Z,28.43
2022-10-23T04:45:13.854Z,26.90
2022-10-23T04:50:17.914Z,29.00
2022-10-23T04:55:38.855Z,29.93
2022-10-23T05:00:48.881Z,28.90
2022-10-23T05:05:57.938Z,30.00
2022-10-23T05:11:20.623Z,28.07
2022-10-23T05:16:39.063Z,29.87
2022-10-23T05:21:42.251Z,31.30
2022-10-23T05:26:44.778Z,31.53
2022-10-23T05:31:50.666Z,30.37
2022-10-23T05:36:54.163Z,29.93
2022-10-23T05:41:59.121Z,29.70
2022-10-23T05:47:02.731Z,28.93
2022-10-23T05:52:24.264Z,30.10
2022-10-23T05:57:45.592Z,30.10
2022-10-23T06:02:51.202Z,30.33
2022-10-23T06:08:11.104Z,30.13
2022-10-23T06:13:13.858Z,30.27
2022-10-23T06:18:16.809Z,30.23
2022-10-23T06:23:34.392Z,28.57
2022-10-23T06:28:43.268Z,28.60
2022-10-23T06:33:46.062Z,26.53
2022-10-23T06:38:49.545Z,26.60
2022-10-23T06:43:52.560Z,25.97
2022-10-23T06:49:03.962Z,24.77
2022-10-23T06:54:11.889Z,24.30
2022-10-23T06:59:23.814Z,23.10
2022-10-23T07:04:27.980Z,23.87
2022-10-23T07:09:30.859Z,22.27
2022-10-23T07:14:33.424Z,23.53
2022-10-23T07:19:38.499Z,22.97
2022-10-23T07:24:46.367Z,24.70
2022-10-23T07:30:03.042Z,24.60
2022-10-23T07:35:12.391Z,26.80
2022-10-23T07:40:19.082Z,28.23
2022-10-23T07:45:21.597Z,27.97
2022-10-23T07:50:24.646Z,26.50
2022-10-23T07:55:27.133Z,27.10
2022-10-23T08:00:41.357Z,27.97
2022-10-23T08:05:53.791Z,28.20
2022-10-23T08:10:56.789Z,27.33
2022-10-23T08:16:04.742Z,27.60
2022-10-23T08:21:33.333Z,26.00
2022-10-23T08:26:36.326Z,26.27
2022-10-23T08:31:38.759Z,26.77
2022-10-23T08:36:49.932Z,32.20
2022-10-23T08:41:53.328Z,28.30
2022-10-23T08:47:00.839Z,23.23
2022-10-23T08:52:53.162Z,23.73
2022-10-23T08:58:06.185Z,21.33
2022-10-23T09:03:11.985Z,22.53
2022-10-23T09:08:33.942Z,26.77
2022-10-23T09:14:15.201Z,33.07
2022-10-23T09:19:19.779Z,25.60
2022-10-23T09:24:24.830Z,23.57
2022-10-23T09:29:33.209Z,35.03
2022-10-23T09:34:35.645Z,23.80
2022-10-23T09:39:38.244Z,27.30
2022-10-23T09:44:51.819Z,21.67
2022-10-23T09:49:56.938Z,21.30
2022-10-23T09:55:02.306Z,22.83
2022-10-23T10:00:18.793Z,23.33
2022-10-23T10:05:31.066Z,22.37
2022-10-23T10:10:39.889Z,22.70
2022-10-23T10:15:53.212Z,22.43
2022-10-23T10:21:14.579Z,21.70
2022-10-23T10:32:13.449Z,22.13
2022-10-23T10:37:22.241Z,20.97
2022-10-23T10:42:31.114Z,22.37
2022-10-23T10:48:10.903Z,22.17
2022-10-23T10:54:04.303Z,18.10
2022-10-23T10:59:16.861Z,18.33
2022-10-23T11:04:42.549Z,18.27
2022-10-23T11:09:45.664Z,19.13
2022-10-23T11:14:49.932Z,20.07
2022-10-23T11:19:59.730Z,19.40
2022-10-23T11:25:13.851Z,19.77
2022-10-23T11:30:40.711Z,19.53
2022-10-23T11:36:07.164Z,19.23
2022-10-23T11:41:27.141Z,19.70
2022-10-23T11:46:32.645Z,18.90
2022-10-23T11:51:40.553Z,17.73
2022-10-23T11:56:54.855Z,20.83
2022-10-23T12:02:00.825Z,28.80
2022-10-23T12:07:14.359Z,19.17
2022-10-23T12:12:34.283Z,17.20
2022-10-23T12:17:39.157Z,18.03
2022-10-23T12:23:03.602Z,17.87
2022-10-23T12:28:27.720Z,17.90
2022-10-23T12:33:41.314Z,18.47
2022-10-23T12:38:48.859Z,17.50
2022-10-23T12:43:58.432Z,16.70
2022-10-23T12:49:04.038Z,14.27
2022-10-23T12:54:21.042Z,13.47
2022-10-23T12:59:36.817Z,12.43
2022-10-23T13:04:40.591Z,10.37
2022-10-23T13:09:44.700Z,9.77
2022-10-23T13:15:14.180Z,8.60
2022-10-23T13:20:24.636Z,9.67
2022-10-23T13:25:33.186Z,7.37
2022-10-23T13:30:48.262Z,7.40
2022-10-23T13:36:00.593Z,9.77
2022-10-23T13:41:05.638Z,5.77
2022-10-23T13:46:14.855Z,6.53
2022-10-23T13:51:25.613Z,5.90
2022-10-23T13:56:29.889Z,7.47
2022-10-23T14:01:38.632Z,5.17
2022-10-23T14:06:42.191Z,7.20
2022-10-23T14:11:44.884Z,12.03
2022-10-23T14:16:47.248Z,23.53
2022-10-23T14:21:49.629Z,14.47
2022-10-23T14:26:52.048Z,15.53
2022-10-23T14:31:54.460Z,18.33
2022-10-23T14:37:07.727Z,15.57
2022-10-23T14:42:10.473Z,19.13
2022-10-23T14:47:12.867Z,21.17
2022-10-23T14:52:15.258Z,11.37
2022-10-23T14:57:19.425Z,8.07
2022-10-23T15:02:21.881Z,8.87
2022-10-23T15:07:24.289Z,8.23
2022-10-23T15:12:26.655Z,9.27
2022-10-23T15:17:29.020Z,10.73
2022-10-23T15:22:31.445Z,12.47
2022-10-23T15:27:33.797Z,12.93
2022-10-23T15:32:36.140Z,14.00
2022-10-23T15:37:38.541Z,14.50
2022-10-23T15:42:41.352Z,13.97
2022-10-23T15:47:44.101Z,13.53
2022-10-23T15:52:46.971Z,13.83
2022-10-23T15:57:49.596Z,15.27
2022-10-23T16:02:52.901Z,14.50
2022-10-23T16:07:55.256Z,11.30
2022-10-23T16:12:57.677Z,12.00
2022-10-23T16:18:00.059Z,12.43
2022-10-23T16:23:02.426Z,24.97
2022-10-23T16:28:05.799Z,16.13
2022-10-23T16:33:08.470Z,13.93
2022-10-23T16:38:10.884Z,15.27
2022-10-23T16:43:13.247Z,15.40
2022-10-23T16:48:19.115Z,16.17
2022-10-23T16:53:21.528Z,17.27
2022-10-23T16:58:27.596Z,38.37
2022-10-23T17:03:30.598Z,40.60
2022-10-23T17:08:33.495Z,35.97
2022-10-23T17:13:37.707Z,34.23
2022-10-23T17:18:43.748Z,28.03
2022-10-23T17:23:47.267Z,23.17
2022-10-23T17:28:49.956Z,21.13
2022-10-23T17:33:57.531Z,18.80
2022-10-23T17:39:00.473Z,17.57
2022-10-23T17:44:04.074Z,17.60
2022-10-23T17:49:06.927Z,34.13
2022-10-23T17:54:12.102Z,27.13
2022-10-23T17:59:17.490Z,20.50
2022-10-23T18:04:20.805Z,28.53
2022-10-23T18:09:23.584Z,24.03
2022-10-23T18:14:28.502Z,19.63
2022-10-23T18:19:32.058Z,21.77
2022-10-23T18:24:34.458Z,25.23
2022-10-23T18:29:38.223Z,24.67
2022-10-23T18:34:40.605Z,24.47
2022-10-23T18:39:43.185Z,27.57
2022-10-23T18:44:50.091Z,30.30
2022-10-23T18:49:52.528Z,30.40
2022-10-23T18:54:54.912Z,33.37
2022-10-23T18:59:57.295Z,35.60
2022-10-23T19:04:59.966Z,32.67
2022-10-23T19:10:02.641Z,32.57
2022-10-23T19:15:05.411Z,37.93
2022-10-23T19:20:14.859Z,36.73
2022-10-23T19:25:21.692Z,36.10
2022-10-23T19:30:24.819Z,33.73
2022-10-23T19:35:27.290Z,32.53
2022-10-23T19:40:29.722Z,33.60
2022-10-23T19:50:42.544Z,34.80
2022-10-23T19:55:44.933Z,36.43
2022-10-23T20:00:47.368Z,47.30
2022-10-23T20:05:49.893Z,38.77
2022-10-23T20:10:52.490Z,31.53
2022-10-23T20:15:55.326Z,28.87
2022-10-23T20:21:00.569Z,29.80
2022-10-23T20:26:08.179Z,26.93
2022-10-23T20:31:11.684Z,26.07
2022-10-23T20:36:34.950Z,36.07
2022-10-23T20:41:37.910Z,26.10
2022-10-23T20:46:40.566Z,27.13
2022-10-23T20:51:43.349Z,26.10
2022-10-23T20:56:45.750Z,24.67
2022-10-23T21:01:51.323Z,25.47
2022-10-23T21:07:11.673Z,27.93
2022-10-23T21:12:14.253Z,27.47
2022-10-23T21:17:18.052Z,27.73
2022-10-23T21:22:20.449Z,29.37
2022-10-23T21:27:22.917Z,25.83
2022-10-23T21:32:25.366Z,27.23
2022-10-23T21:37:27.730Z,28.73
2022-10-23T21:42:30.940Z,35.73
2022-10-23T21:47:34.212Z,26.70
2022-10-23T21:52:36.636Z,27.67
2022-10-23T21:57:39.042Z,30.30
2022-10-23T22:02:41.642Z,32.50
2022-10-23T22:07:47.360Z,31.50
2022-10-23T22:12:49.737Z,29.63
2022-10-23T22:17:52.175Z,25.17
2022-10-23T22:22:54.567Z,25.47
2022-10-23T22:27:57.004Z,29.07
2022-10-23T22:32:59.413Z,29.07
2022-10-23T22:38:01.937Z,25.77
2022-10-23T22:43:04.434Z,27.57
2022-10-23T22:48:08.623Z,25.73
2022-10-23T22:53:11.045Z,26.37
2022-10-23T22:58:13.432Z,26.47
2022-10-23T23:03:16.122Z,25.77
2022-10-23T23:08:18.540Z,26.13
2022-10-23T23:13:21.208Z,23.77
2022-10-23T23:18:23.597Z,23.80
2022-10-23T23:23:25.957Z,23.77
2022-10-23T23:28:28.352Z,23.47
2022-10-23T23:33:30.888Z,22.60
2022-10-23T23:38:33.375Z,24.70
2022-10-23T23:43:35.740Z,23.10
2022-10-23T23:48:39.033Z,23.20
2022-10-23T23:53:41.465Z,22.53
2022-10-23T23:58:44.205Z,22.43
